Terminal Aerodrome Forecast
Issued by NWS Paducah, KY

Home | Current Version | Previous Version | Text Only | Print | Product List | Glossary On
Versions: 1 2 3 4 5 6 7 8 9 10 11 12
000
FTUS43 KPAH 152300
TAFPAH
TAF
KPAH 152320Z 1600/1624 14002KT P6SM SKC
     FM161400 15009KT P6SM FEW300
     FM161800 16010G17KT P6SM FEW300=

USA.gov is the U.S. government's official web portal to all federal, state and local government web resources and services.